The Hangar Logo

METARs in Plain English
Latest METAR information for EGVN - BRIZE NORTON

EGVN 241133Z 26011G22KT 4000 -RA BKN014 OVC022 08/06 Q1003 GRN BECMG 9999 NSW BKN020 WHT

In plain english is....

This is a METAR report for EGVN - BRIZE NORTON .
The report was made 16 minutes ago, at 11:33 UTC.
The wind was blowing at a speed of 11 knots (12.7 miles per hour, 5.7 metres per second), with gusts to 22 knots (25.3 miles per hour, 11.3 metres per second), from the West (260°).
The visibility was 2.5 miles (4.0 kilometres).
Weather was Light Rain .
There were broken clouds at a height of 1400 feet (427 metres) and overcast at a height of 2200 feet (671 metres).
The temperature was 8°C (46°F), a dew point of 6°C (43°F) and a relative humidity of 87.2%.
The altimeter setting (airfield QNH) was 1,003 hPa (29.62 inHg).
Other remarks GRN BECMG 9999 NSW BKN020 WHT.

UK Mainland

Ireland

Channel Islands (& Isle of Man)

France

Other



Enter
Tel: 07092 887559 - Fax: 07092 183262

Content copyright © 1999-2016 TheHangar.co.uk. All rights reserved.
Please send your questions, comments, or bug reports to the Webmaster.